createdAt,value
2019-01-12T00:01:04.295Z,7.60
2019-01-12T00:03:30.828Z,7.47
2019-01-12T00:05:57.665Z,7.47
2019-01-12T00:08:24.511Z,7.87
2019-01-12T00:10:51.353Z,7.40
2019-01-12T00:13:18.202Z,6.90
2019-01-12T00:15:45.038Z,7.00
2019-01-12T00:18:11.567Z,6.50
2019-01-12T00:20:38.414Z,7.00
2019-01-12T00:23:05.251Z,7.97
2019-01-12T00:25:32.092Z,6.70
2019-01-12T00:27:58.626Z,6.47
2019-01-12T00:30:25.468Z,7.23
2019-01-12T00:32:52.313Z,5.80
2019-01-12T00:35:18.844Z,6.33
2019-01-12T00:37:45.686Z,6.63
2019-01-12T00:40:12.223Z,6.80
2019-01-12T00:42:39.369Z,5.93
2019-01-12T00:45:05.914Z,6.13
2019-01-12T00:47:32.795Z,6.20
2019-01-12T00:50:00.192Z,6.30
2019-01-12T00:52:27.047Z,6.03
2019-01-12T00:54:53.577Z,6.00
2019-01-12T00:57:20.113Z,5.93
2019-01-12T00:59:46.651Z,5.20
2019-01-12T01:02:13.488Z,5.63
2019-01-12T01:04:40.062Z,5.43
2019-01-12T01:07:06.864Z,5.00
2019-01-12T01:09:33.400Z,4.80
2019-01-12T01:11:59.941Z,5.80
2019-01-12T01:14:26.776Z,4.43
2019-01-12T01:16:53.618Z,5.00
2019-01-12T01:19:20.466Z,4.83
2019-01-12T01:21:46.994Z,5.00
2019-01-12T01:24:13.835Z,4.97
2019-01-12T01:26:40.690Z,5.00
2019-01-12T01:29:07.519Z,4.20
2019-01-12T01:31:34.056Z,4.40
2019-01-12T01:34:00.894Z,3.93
2019-01-12T01:36:27.736Z,4.50
2019-01-12T01:38:54.582Z,4.13
2019-01-12T01:41:21.113Z,4.53
2019-01-12T01:43:47.958Z,4.10
2019-01-12T01:46:14.806Z,4.10
2019-01-12T01:48:41.330Z,4.00
2019-01-12T01:51:08.172Z,4.00
2019-01-12T01:53:34.712Z,4.17
2019-01-12T01:56:01.241Z,3.90
2019-01-12T01:58:28.088Z,3.93
2019-01-12T02:00:54.926Z,3.90
2019-01-12T02:03:21.766Z,3.83
2019-01-12T02:05:48.300Z,3.30
2019-01-12T02:08:14.838Z,3.43
2019-01-12T02:10:41.368Z,3.63
2019-01-12T02:13:07.909Z,3.67
2019-01-12T02:15:34.438Z,3.40
2019-01-12T02:18:01.279Z,3.70
2019-01-12T02:20:27.815Z,3.50
2019-01-12T02:22:54.663Z,3.40
2019-01-12T02:25:21.198Z,3.27
2019-01-12T02:27:48.032Z,2.73
2019-01-12T02:30:14.571Z,3.13
2019-01-12T02:32:41.411Z,3.13
2019-01-12T02:35:08.251Z,3.50
2019-01-12T02:37:35.092Z,3.57
2019-01-12T02:40:01.639Z,3.00
2019-01-12T02:42:29.085Z,3.30
2019-01-12T02:44:55.929Z,3.40
2019-01-12T02:47:22.768Z,3.33
2019-01-12T02:49:49.617Z,3.17
2019-01-12T02:52:16.449Z,2.77
2019-01-12T02:54:42.984Z,2.77
2019-01-12T02:57:09.829Z,2.67
2019-01-12T02:59:36.671Z,3.00
2019-01-12T03:02:03.510Z,3.03
2019-01-12T03:04:30.359Z,2.70
2019-01-12T03:06:56.895Z,2.23
2019-01-12T03:09:23.418Z,2.40
2019-01-12T03:11:50.048Z,2.67
2019-01-12T03:14:16.796Z,2.63
2019-01-12T03:16:43.333Z,2.47
2019-01-12T03:19:10.175Z,2.60
2019-01-12T03:21:36.708Z,2.20
2019-01-12T03:24:03.549Z,2.50
2019-01-12T03:26:30.083Z,2.27
2019-01-12T03:28:56.624Z,1.93
2019-01-12T03:31:23.153Z,2.27
2019-01-12T03:33:49.685Z,1.70
2019-01-12T03:36:16.526Z,2.20
2019-01-12T03:38:43.070Z,2.20
2019-01-12T03:41:09.599Z,2.53
2019-01-12T03:43:36.446Z,2.47
2019-01-12T03:46:02.973Z,2.33
2019-01-12T03:48:29.536Z,2.23
2019-01-12T03:50:56.040Z,2.60
2019-01-12T03:53:22.883Z,2.00
2019-01-12T03:55:49.727Z,2.27
2019-01-12T03:58:16.568Z,2.40
2019-01-12T04:00:43.408Z,2.90
2019-01-12T04:03:09.955Z,2.70
2019-01-12T04:05:36.479Z,2.00
2019-01-12T04:08:03.319Z,2.57
2019-01-12T04:10:30.161Z,2.17
2019-01-12T04:12:56.699Z,2.40
2019-01-12T04:15:23.536Z,2.40
2019-01-12T04:17:50.074Z,2.50
2019-01-12T04:20:16.605Z,2.10
2019-01-12T04:22:43.450Z,2.50
2019-01-12T04:25:10.289Z,1.97
2019-01-12T04:27:36.826Z,2.40
2019-01-12T04:30:03.665Z,2.77
2019-01-12T04:32:30.199Z,2.03
2019-01-12T04:34:57.042Z,2.03
2019-01-12T04:37:23.883Z,2.10
2019-01-12T04:39:50.727Z,2.23
2019-01-12T04:42:17.259Z,2.40
2019-01-12T04:44:44.100Z,2.30
2019-01-12T04:47:10.941Z,2.00
2019-01-12T04:49:37.519Z,2.17
2019-01-12T04:52:04.317Z,2.47
2019-01-12T04:54:30.854Z,2.27
2019-01-12T04:56:57.422Z,2.30
2019-01-12T04:59:24.227Z,2.30
2019-01-12T05:01:51.070Z,2.50
2019-01-12T05:04:17.605Z,2.07
2019-01-12T05:06:44.451Z,2.40
2019-01-12T05:09:10.983Z,1.97
2019-01-12T05:11:37.828Z,1.90
2019-01-12T05:14:04.360Z,1.90
2019-01-12T05:16:30.892Z,2.10
2019-01-12T05:18:57.736Z,2.10
2019-01-12T05:21:24.268Z,2.00
2019-01-12T05:23:51.109Z,2.30
2019-01-12T05:26:18.016Z,2.27
2019-01-12T05:28:44.793Z,2.30
2019-01-12T05:31:11.634Z,2.30
2019-01-12T05:33:38.476Z,1.97
2019-01-12T05:36:05.017Z,2.47
2019-01-12T05:38:31.851Z,2.23
2019-01-12T05:40:58.389Z,2.27
2019-01-12T05:43:25.230Z,2.13
2019-01-12T05:45:52.072Z,2.37
2019-01-12T05:48:18.920Z,2.20
2019-01-12T05:50:45.753Z,2.10
2019-01-12T05:53:12.595Z,2.33
2019-01-12T05:55:39.131Z,2.07
2019-01-12T05:58:05.668Z,2.17
2019-01-12T06:00:32.204Z,1.90
2019-01-12T06:02:59.040Z,2.67
2019-01-12T06:05:25.581Z,2.33
2019-01-12T06:07:52.416Z,1.93
2019-01-12T06:10:18.955Z,3.07
2019-01-12T06:12:45.463Z,2.30
2019-01-12T06:15:12.327Z,2.30
2019-01-12T06:17:38.867Z,2.10
2019-01-12T06:20:05.398Z,2.20
2019-01-12T06:22:32.241Z,2.10
2019-01-12T06:24:58.776Z,2.30
2019-01-12T06:27:25.307Z,2.37
2019-01-12T06:29:51.846Z,2.10
2019-01-12T06:32:18.682Z,2.07
2019-01-12T06:34:45.218Z,2.30
2019-01-12T06:37:11.757Z,2.30
2019-01-12T06:39:38.293Z,2.43
2019-01-12T06:42:05.150Z,2.53
2019-01-12T06:44:31.969Z,3.30
2019-01-12T06:46:58.505Z,2.17
2019-01-12T06:49:25.039Z,2.27
2019-01-12T06:51:51.881Z,2.43
2019-01-12T06:54:18.415Z,2.50
2019-01-12T06:56:44.950Z,2.57
2019-01-12T06:59:11.484Z,2.53
2019-01-12T07:01:38.020Z,2.40
2019-01-12T07:04:04.552Z,2.20
2019-01-12T07:06:31.395Z,2.20
2019-01-12T07:08:58.219Z,2.33
2019-01-12T07:11:24.770Z,2.10
2019-01-12T07:13:51.614Z,2.50
2019-01-12T07:16:18.149Z,2.20
2019-01-12T07:18:44.989Z,2.43
2019-01-12T07:21:11.526Z,2.50
2019-01-12T07:23:38.365Z,2.47
2019-01-12T07:26:04.882Z,2.30
2019-01-12T07:28:31.433Z,2.63
2019-01-12T07:30:58.280Z,2.47
2019-01-12T07:33:25.117Z,2.70
2019-01-12T07:35:51.651Z,2.87
2019-01-12T07:38:18.278Z,2.80
2019-01-12T07:40:45.027Z,2.50
2019-01-12T07:43:11.565Z,2.37
2019-01-12T07:45:38.408Z,2.70
2019-01-12T07:48:04.938Z,3.13
2019-01-12T07:50:31.476Z,2.33
2019-01-12T07:52:58.085Z,2.67
2019-01-12T07:55:24.849Z,3.33
2019-01-12T07:57:51.383Z,2.63
2019-01-12T08:00:18.532Z,3.13
2019-01-12T08:02:45.070Z,3.07
2019-01-12T08:05:11.618Z,2.90
2019-01-12T08:07:38.222Z,2.80
2019-01-12T08:10:04.979Z,3.10
2019-01-12T08:12:31.520Z,3.50
2019-01-12T08:14:58.047Z,3.43
2019-01-12T08:17:24.891Z,3.20
2019-01-12T08:19:51.730Z,3.43
2019-01-12T08:22:18.268Z,2.80
2019-01-12T08:24:44.799Z,3.33
2019-01-12T08:27:11.335Z,4.20
2019-01-12T08:29:37.872Z,3.73
2019-01-12T08:32:04.712Z,4.77
2019-01-12T08:34:31.245Z,4.40
2019-01-12T08:36:57.786Z,4.60
2019-01-12T08:39:24.316Z,4.00
2019-01-12T08:41:51.156Z,4.00
2019-01-12T08:44:17.689Z,4.60
2019-01-12T08:46:44.533Z,4.90
2019-01-12T08:49:11.359Z,3.93
2019-01-12T08:51:38.014Z,4.37
2019-01-12T08:54:04.747Z,4.20
2019-01-12T08:56:37.988Z,4.70
2019-01-12T08:58:59.661Z,4.40
2019-01-12T09:01:26.507Z,3.87
2019-01-12T09:03:53.346Z,3.90
2019-01-12T09:06:19.884Z,4.27
2019-01-12T09:08:46.415Z,4.77
2019-01-12T09:11:13.254Z,4.30
2019-01-12T09:13:40.099Z,4.80
2019-01-12T09:16:06.825Z,4.33
2019-01-12T09:18:33.473Z,63.80
2019-01-12T09:21:00.012Z,109.97
2019-01-12T09:23:26.542Z,130.37
2019-01-12T09:25:53.382Z,117.50
2019-01-12T09:28:19.921Z,114.47
2019-01-12T09:30:48.565Z,115.47
2019-01-12T09:33:14.833Z,100.87
2019-01-12T09:35:41.364Z,98.60
2019-01-12T09:38:08.206Z,96.10
2019-01-12T09:40:34.740Z,94.60
2019-01-12T09:43:01.274Z,89.03
2019-01-12T09:45:28.115Z,81.90
2019-01-12T09:47:54.652Z,81.07
2019-01-12T09:50:21.492Z,80.67
2019-01-12T09:52:48.337Z,80.50
2019-01-12T09:55:15.177Z,74.53
2019-01-12T09:57:41.712Z,80.90
2019-01-12T10:00:08.244Z,72.70
2019-01-12T10:02:34.783Z,79.60
2019-01-12T10:05:01.316Z,76.33
2019-01-12T10:07:27.851Z,74.77
2019-01-12T10:09:54.382Z,72.77
2019-01-12T10:12:20.917Z,69.93
2019-01-12T10:14:47.761Z,75.83
2019-01-12T10:17:14.291Z,66.83
2019-01-12T10:19:41.134Z,67.57
2019-01-12T10:22:07.980Z,67.90
2019-01-12T10:24:34.511Z,64.63
2019-01-12T10:27:01.118Z,68.03
2019-01-12T10:29:28.194Z,65.83
2019-01-12T10:31:55.035Z,65.87
2019-01-12T10:34:21.571Z,63.53
2019-01-12T10:36:48.104Z,63.20
2019-01-12T10:39:17.974Z,64.07
2019-01-12T10:41:43.018Z,56.57
2019-01-12T10:44:09.572Z,55.93
2019-01-12T10:46:36.093Z,57.67
2019-01-12T10:49:02.931Z,55.93
2019-01-12T10:51:29.469Z,54.23
2019-01-12T10:53:56.000Z,53.77
2019-01-12T10:56:23.759Z,51.40
2019-01-12T10:58:50.600Z,52.50
2019-01-12T11:01:17.135Z,49.87
2019-01-12T11:03:43.977Z,44.57
2019-01-12T11:06:10.818Z,40.67
2019-01-12T11:08:37.354Z,41.77
2019-01-12T11:11:03.888Z,39.03
2019-01-12T11:13:30.729Z,39.20
2019-01-12T11:15:57.570Z,37.67
2019-01-12T11:18:24.634Z,35.97
2019-01-12T11:20:51.811Z,34.07
2019-01-12T11:23:18.589Z,32.50
2019-01-12T11:25:45.244Z,31.37
2019-01-12T11:28:11.780Z,30.80
2019-01-12T11:30:38.317Z,29.90
2019-01-12T11:33:04.847Z,28.27
2019-01-12T11:35:31.691Z,27.67
2019-01-12T11:37:58.226Z,24.47
2019-01-12T11:40:25.065Z,24.37
2019-01-12T11:42:51.603Z,25.40
2019-01-12T11:45:18.752Z,23.53
2019-01-12T11:47:45.285Z,24.20
2019-01-12T11:50:11.817Z,21.73
2019-01-12T11:52:38.353Z,21.87
2019-01-12T11:55:04.972Z,21.47
2019-01-12T11:57:31.732Z,20.40
2019-01-12T12:01:13.834Z,20.43
2019-01-12T12:03:40.676Z,17.50
2019-01-12T12:06:07.522Z,19.73
2019-01-12T12:08:34.099Z,19.93
2019-01-12T12:11:00.589Z,19.83
2019-01-12T12:13:27.127Z,18.77
2019-01-12T12:15:53.654Z,19.80
2019-01-12T12:18:20.190Z,19.93
2019-01-12T12:20:47.032Z,17.37
2019-01-12T12:23:13.566Z,19.93
2019-01-12T12:25:40.408Z,18.07
2019-01-12T12:28:06.949Z,19.27
2019-01-12T12:30:33.476Z,19.00
2019-01-12T12:33:00.320Z,17.97
2019-01-12T12:35:26.851Z,18.57
2019-01-12T12:37:53.388Z,18.77
2019-01-12T12:40:20.227Z,17.83
2019-01-12T12:42:46.765Z,16.87
2019-01-12T12:45:13.605Z,17.90
2019-01-12T12:47:40.139Z,17.00
2019-01-12T12:50:06.676Z,16.10
2019-01-12T12:52:33.210Z,16.43
2019-01-12T12:55:00.050Z,16.40
2019-01-12T12:57:32.743Z,17.13
2019-01-12T12:59:54.962Z,15.80
2019-01-12T13:02:21.499Z,16.40
2019-01-12T13:04:48.031Z,15.00
2019-01-12T13:07:14.567Z,15.03
2019-01-12T13:09:42.445Z,14.20
2019-01-12T13:12:09.177Z,14.67
2019-01-12T13:14:36.011Z,15.33
2019-01-12T13:17:02.547Z,13.63
2019-01-12T13:19:29.082Z,14.30
2019-01-12T13:21:55.923Z,14.83
2019-01-12T13:24:22.766Z,14.20
2019-01-12T13:26:49.608Z,13.77
2019-01-12T13:29:16.139Z,13.27
2019-01-12T13:31:42.982Z,12.43
2019-01-12T13:34:09.835Z,13.13
2019-01-12T13:36:36.358Z,13.23
2019-01-12T13:39:02.899Z,13.60
2019-01-12T13:41:29.430Z,13.00
2019-01-12T13:43:56.268Z,13.27
2019-01-12T13:46:23.110Z,12.40
2019-01-12T13:48:49.645Z,12.37
2019-01-12T13:51:16.179Z,13.47
2019-01-12T13:53:43.020Z,13.17
2019-01-12T13:56:09.557Z,12.90
2019-01-12T13:58:36.397Z,12.53
2019-01-12T14:01:03.238Z,12.27
2019-01-12T14:03:30.999Z,12.67
2019-01-12T14:05:58.152Z,13.20
2019-01-12T14:08:24.691Z,12.37
2019-01-12T14:10:51.528Z,12.00
2019-01-12T14:13:18.061Z,12.30
2019-01-12T14:15:44.596Z,11.30
2019-01-12T14:18:11.439Z,12.23
2019-01-12T14:20:37.974Z,11.20
2019-01-12T14:23:04.814Z,12.10
2019-01-12T14:25:31.347Z,11.63
2019-01-12T14:27:57.884Z,12.27
2019-01-12T14:30:24.434Z,11.40
2019-01-12T14:32:51.365Z,11.43
2019-01-12T14:35:18.100Z,11.47
2019-01-12T14:37:44.638Z,12.27
2019-01-12T14:40:11.170Z,12.23
2019-01-12T14:42:38.014Z,12.23
2019-01-12T14:45:04.548Z,11.37
2019-01-12T14:47:31.394Z,11.77
2019-01-12T14:49:58.230Z,12.87
2019-01-12T14:52:24.762Z,11.67
2019-01-12T14:54:51.609Z,12.07
2019-01-12T14:57:18.448Z,11.43
2019-01-12T14:59:45.050Z,12.07
2019-01-12T15:02:11.850Z,12.37
2019-01-12T15:04:38.692Z,10.90
2019-01-12T15:07:05.507Z,10.57
2019-01-12T15:09:32.047Z,11.03
2019-01-12T15:11:58.575Z,11.17
2019-01-12T15:14:25.111Z,11.43
2019-01-12T15:16:51.644Z,11.47
2019-01-12T15:19:18.180Z,10.87
2019-01-12T15:21:45.020Z,11.17
2019-01-12T15:24:11.556Z,10.97
2019-01-12T15:26:38.400Z,11.20
2019-01-12T15:29:04.933Z,11.33
2019-01-12T15:31:31.468Z,10.70
2019-01-12T15:33:58.305Z,10.77
2019-01-12T15:36:25.152Z,11.17
2019-01-12T15:38:51.682Z,9.67
2019-01-12T15:41:18.221Z,11.30
2019-01-12T15:43:44.751Z,10.20
2019-01-12T15:46:11.288Z,10.10
2019-01-12T15:48:37.827Z,10.50
2019-01-12T15:51:04.664Z,10.07
2019-01-12T15:53:31.196Z,10.83
2019-01-12T15:55:57.731Z,9.83
2019-01-12T15:58:24.268Z,11.07
2019-01-12T16:00:51.107Z,10.63
2019-01-12T16:03:17.952Z,10.43
2019-01-12T16:05:44.792Z,10.10
2019-01-12T16:08:11.326Z,9.33
2019-01-12T16:10:38.225Z,10.13
2019-01-12T16:13:05.010Z,10.60
2019-01-12T16:15:31.543Z,10.03
2019-01-12T16:17:58.390Z,10.47
2019-01-12T16:20:24.923Z,9.43
2019-01-12T16:22:51.761Z,10.60
2019-01-12T16:25:18.295Z,9.07
2019-01-12T16:27:44.832Z,9.73
2019-01-12T16:30:11.367Z,9.13
2019-01-12T16:32:38.205Z,8.70
2019-01-12T16:35:04.742Z,9.40
2019-01-12T16:37:32.049Z,9.70
2019-01-12T16:39:58.734Z,9.27
2019-01-12T16:42:25.267Z,9.23
2019-01-12T16:44:52.112Z,9.27
2019-01-12T16:47:18.641Z,9.00
2019-01-12T16:49:45.175Z,9.37
2019-01-12T16:52:12.019Z,8.80
2019-01-12T16:54:38.859Z,9.27
2019-01-12T16:57:05.703Z,9.43
2019-01-12T16:59:32.237Z,8.87
2019-01-12T17:01:58.771Z,9.40
2019-01-12T17:04:25.305Z,9.53
2019-01-12T17:06:51.842Z,9.17
2019-01-12T17:09:18.680Z,9.03
2019-01-12T17:11:45.219Z,8.90
2019-01-12T17:14:11.751Z,8.67
2019-01-12T17:16:38.592Z,9.00
2019-01-12T17:19:05.126Z,8.37
2019-01-12T17:21:31.660Z,8.30
2019-01-12T17:23:58.194Z,8.67
2019-01-12T17:26:25.044Z,7.90
2019-01-12T17:28:51.881Z,9.10
2019-01-12T17:31:18.412Z,9.20
2019-01-12T17:33:44.947Z,8.23
2019-01-12T17:36:11.483Z,8.60
2019-01-12T17:38:38.325Z,8.20
2019-01-12T17:41:04.883Z,8.67
2019-01-12T17:43:31.539Z,8.00
2019-01-12T17:45:58.242Z,8.40
2019-01-12T17:48:25.139Z,8.10
2019-01-12T17:50:51.922Z,7.83
2019-01-12T17:53:18.457Z,9.20
2019-01-12T17:55:44.986Z,7.80
2019-01-12T17:58:11.521Z,7.97
2019-01-12T18:00:38.055Z,7.63
2019-01-12T18:03:04.593Z,9.27
2019-01-12T18:05:31.125Z,8.50
2019-01-12T18:07:57.659Z,7.80
2019-01-12T18:10:24.194Z,7.47
2019-01-12T18:12:50.829Z,7.13
2019-01-12T18:15:17.570Z,7.73
2019-01-12T18:17:44.105Z,7.87
2019-01-12T18:20:10.641Z,8.30
2019-01-12T18:22:37.176Z,8.03
2019-01-12T18:25:03.691Z,7.50
2019-01-12T18:27:30.240Z,8.00
2019-01-12T18:29:56.777Z,7.97
2019-01-12T18:32:23.311Z,7.77
2019-01-12T18:34:49.854Z,7.53
2019-01-12T18:37:16.686Z,7.60
2019-01-12T18:39:43.528Z,7.27
2019-01-12T18:42:10.072Z,7.43
2019-01-12T18:44:37.211Z,7.80
2019-01-12T18:47:04.046Z,7.83
2019-01-12T18:49:30.596Z,7.60
2019-01-12T18:51:57.739Z,8.43
2019-01-12T18:54:24.562Z,7.40
2019-01-12T18:56:51.816Z,8.03
2019-01-12T18:59:18.578Z,6.90
2019-01-12T19:01:45.102Z,8.23
2019-01-12T19:04:11.945Z,7.77
2019-01-12T19:06:38.486Z,8.17
2019-01-12T19:09:05.327Z,8.30
2019-01-12T19:11:32.164Z,8.13
2019-01-12T19:13:58.696Z,8.70
2019-01-12T19:16:25.540Z,7.57
2019-01-12T19:18:52.674Z,8.43
2019-01-12T19:21:19.223Z,8.67
2019-01-12T19:23:46.080Z,7.93
2019-01-12T19:26:12.603Z,8.07
2019-01-12T19:28:39.137Z,8.43
2019-01-12T19:31:05.974Z,8.50
2019-01-12T19:33:32.817Z,8.70
2019-01-12T19:35:59.350Z,8.07
2019-01-12T19:38:25.884Z,7.37
2019-01-12T19:40:52.418Z,8.80
2019-01-12T19:43:19.055Z,7.70
2019-01-12T19:45:45.795Z,8.90
2019-01-12T19:48:12.636Z,7.97
2019-01-12T19:50:39.176Z,8.50
2019-01-12T19:53:06.012Z,8.90
2019-01-12T19:55:32.856Z,7.83
2019-01-12T19:57:59.389Z,8.20
2019-01-12T20:00:25.925Z,8.43
2019-01-12T20:02:52.460Z,8.00
2019-01-12T20:05:18.992Z,8.87
2019-01-12T20:07:45.528Z,8.30
2019-01-12T20:10:12.061Z,7.93
2019-01-12T20:12:38.596Z,9.80
2019-01-12T20:15:05.137Z,7.87
2019-01-12T20:17:31.972Z,9.23
2019-01-12T20:19:58.507Z,8.73
2019-01-12T20:22:25.348Z,7.90
2019-01-12T20:24:52.190Z,7.93
2019-01-12T20:27:18.724Z,7.57
2019-01-12T20:29:45.568Z,8.83
2019-01-12T20:32:12.102Z,8.00
2019-01-12T20:34:38.637Z,8.37
2019-01-12T20:37:05.173Z,8.60
2019-01-12T20:39:31.715Z,8.47
2019-01-12T20:42:01.329Z,8.97
2019-01-12T20:44:29.174Z,8.10
2019-01-12T20:46:55.915Z,9.13
2019-01-12T20:49:22.843Z,8.47
2019-01-12T20:51:50.059Z,8.60
2019-01-12T20:54:17.054Z,8.43
2019-01-12T20:56:43.887Z,8.10
2019-01-12T20:59:10.437Z,8.17
2019-01-12T21:01:37.042Z,7.77
2019-01-12T21:04:03.821Z,7.63
2019-01-12T21:06:30.649Z,7.57
2019-01-12T21:08:57.183Z,7.23
2019-01-12T21:11:24.024Z,7.67
2019-01-12T21:13:50.559Z,7.40
2019-01-12T21:16:17.092Z,8.60
2019-01-12T21:18:43.631Z,7.43
2019-01-12T21:21:10.162Z,8.17
2019-01-12T21:23:36.698Z,8.30
2019-01-12T21:26:03.236Z,7.60
2019-01-12T21:28:30.072Z,7.10
2019-01-12T21:30:56.607Z,7.03
2019-01-12T21:33:23.141Z,7.43
2019-01-12T21:35:49.675Z,7.13
2019-01-12T21:38:16.212Z,6.93
2019-01-12T21:40:43.051Z,6.93
2019-01-12T21:43:09.587Z,7.27
2019-01-12T21:45:36.123Z,6.70
2019-01-12T21:48:02.657Z,7.40
2019-01-12T21:50:29.190Z,7.10
2019-01-12T21:52:56.032Z,6.97
2019-01-12T21:55:22.566Z,7.13
2019-01-12T21:57:49.100Z,6.70
2019-01-12T22:00:15.636Z,6.37
2019-01-12T22:02:42.479Z,6.67
2019-01-12T22:05:09.013Z,6.33
2019-01-12T22:07:35.548Z,6.20
2019-01-12T22:10:02.390Z,7.40
2019-01-12T22:12:28.934Z,6.33
2019-01-12T22:14:55.762Z,6.27
2019-01-12T22:17:22.298Z,6.80
2019-01-12T22:19:48.841Z,6.40
2019-01-12T22:22:15.675Z,6.47
2019-01-12T22:24:42.516Z,5.93
2019-01-12T22:27:09.052Z,6.10
2019-01-12T22:29:35.584Z,6.30
2019-01-12T22:32:02.120Z,6.17
2019-01-12T22:34:28.663Z,5.73
2019-01-12T22:36:55.187Z,6.00
2019-01-12T22:39:22.029Z,5.70
2019-01-12T22:41:48.563Z,5.43
2019-01-12T22:44:15.406Z,5.87
2019-01-12T22:46:41.943Z,5.73
2019-01-12T22:49:08.475Z,5.90
2019-01-12T22:51:35.316Z,6.10
2019-01-12T22:54:01.855Z,5.77
2019-01-12T22:56:28.708Z,5.40
2019-01-12T22:58:55.535Z,5.73
2019-01-12T23:01:22.071Z,5.10
2019-01-12T23:03:48.915Z,4.70
2019-01-12T23:06:15.445Z,5.27
2019-01-12T23:08:41.982Z,5.67
2019-01-12T23:11:08.821Z,5.30
2019-01-12T23:13:35.355Z,5.10
2019-01-12T23:16:01.892Z,5.40
2019-01-12T23:18:28.424Z,5.03
2019-01-12T23:20:55.050Z,4.53
2019-01-12T23:23:21.800Z,4.80
2019-01-12T23:25:48.334Z,4.70
2019-01-12T23:28:14.871Z,5.10
2019-01-12T23:30:41.410Z,4.93
2019-01-12T23:33:08.250Z,4.07
2019-01-12T23:35:34.780Z,4.90
2019-01-12T23:38:01.316Z,4.57
2019-01-12T23:40:27.851Z,4.83
2019-01-12T23:42:54.384Z,4.37
2019-01-12T23:45:20.919Z,4.23
2019-01-12T23:47:47.760Z,4.30
2019-01-12T23:50:14.297Z,4.33
2019-01-12T23:52:40.835Z,4.37
2019-01-12T23:55:07.368Z,4.50
2019-01-12T23:57:33.898Z,4.17
